737 de Aeroméxico se aproxima a pista incorrecta en San Francisco

Aeroméxico envió a EnElAire la siguiente postura respecto al incidente del pasado martes, cuando el vuelo 668 se alineó a la pista incorrecta en el Aeropuerto de San Francisco, California. El avión aterrizó de forma segura tras haber abortado la primera aproximación.
“Aeroméxico se encuentra investigando lo ocurrido en el aeropuerto de San Francisco e informa que en ningún momento se comprometió la seguridad de los pasajeros ni de las operaciones.”

Durante el pasado martes 9 de enero, un Boeing 737-800 de Aeorméxico, con matrícula XA-AMU, que cubría el vuelo AM668 entre Ciudad de México (MEX) y San Francisco (SFO), fue autorizado a la aproximación a la pista 28R y posteriormente fue autorizado a aterrizar en esa misma pista. La tripulación colacionó correctamente ambas instrucciones.

El 737 se encontraba a una milla de la pista, descendiendo a través de 500 pies sobre el terreno cuando la torre de control notó que el avión estaba aproximándose a la pista 28L en lugar de la 28R. La torre de control ordenó al vuelo AM668 que comenzara una aproximación frustrada ya que había un Airbus A320 de Virgin America iniciando la carrera de despegue en la pista 28L.

Tras la aproximación frustrada, el 737 de Aeroméxico se apróximo nuevamente a la pista 28L donde aterrizó de forma segura 15 minutos después. El vuelo de Virgin America continuó a su destino sin mayor problema.

Las condiciones meteorológicas al momento del incidente eran:

KSFO 091956Z 27014KT 10SM FEW008 BKN017 OVC022 14/11 A2968 RMK AO2 SLP049 T01390111=
KSFO 091856Z 27009KT 10SM FEW008 BKN014 OVC022 14/12 A2967 RMK AO2 SLP048 T01440122=

La FAA ya comenzó las investigaciones.

Related posts

Top